Time;durP1;ratioP1;P1;durP2;ratioP2;P2;SDS_P1;SDS_P2;PMS_P1;PMS_P2;Temp;Humidity;BMP_temperature;BMP_pressure;BME280_temperature;BME280_humidity;BME280_pressure;Samples;Min_cycle;Max_cycle;Signal;HPM_P1;HPM_P2
2023/03/11 00:00:34;;;;;;;9.47;5.30;;;;;;;;;;6187262;28;20310;-74
2023/03/11 00:03:39;;;;;;;9.37;5.23;;;;;;;;;;6187387;28;20299;-75
2023/03/11 00:06:44;;;;;;;8.40;5.37;;;;;;;;;;6190311;28;20321;-75
2023/03/11 00:09:50;;;;;;;9.67;4.87;;;;;;;;;;6186822;28;20312;-74
2023/03/11 00:12:56;;;;;;;6.77;5.17;;;;;;;;;;6187055;28;20297;-76
2023/03/11 00:16:02;;;;;;;6.13;4.80;;;;;;;;;;6187982;28;20309;-77
2023/03/11 00:19:07;;;;;;;5.73;4.40;;;;;;;;;;6187165;28;20496;-75
2023/03/11 00:22:12;;;;;;;4.27;3.87;;;;;;;;;;6187195;28;20300;-75
2023/03/11 00:25:19;;;;;;;7.43;4.27;;;;;;;;;;6187098;28;20306;-75
2023/03/11 00:28:25;;;;;;;5.83;4.87;;;;;;;;;;6187234;28;20550;-75
2023/03/11 00:31:30;;;;;;;8.77;4.97;;;;;;;;;;6194183;28;20273;-75
2023/03/11 00:34:36;;;;;;;8.47;4.53;;;;;;;;;;6222636;28;20300;-73
2023/03/11 00:37:41;;;;;;;5.07;4.57;;;;;;;;;;6220864;28;20566;-74
2023/03/11 00:40:49;;;;;;;9.00;4.93;;;;;;;;;;6187202;28;20298;-75
2023/03/11 00:43:54;;;;;;;7.83;5.60;;;;;;;;;;6186637;28;20306;-75
2023/03/11 00:47:00;;;;;;;9.37;5.63;;;;;;;;;;6186493;28;20301;-75
2023/03/11 00:50:06;;;;;;;7.70;5.73;;;;;;;;;;6185041;28;20582;-74
2023/03/11 00:53:13;;;;;;;6.93;5.43;;;;;;;;;;6186443;28;20565;-75
2023/03/11 00:56:19;;;;;;;5.97;4.90;;;;;;;;;;6217889;28;20300;-75
2023/03/11 00:59:24;;;;;;;8.13;5.40;;;;;;;;;;6216865;28;20300;-73
2023/03/11 01:02:30;;;;;;;11.57;5.50;;;;;;;;;;6186627;28;20313;-76
2023/03/11 01:05:36;;;;;;;7.43;5.70;;;;;;;;;;6185966;28;20298;-74
2023/03/11 01:08:41;;;;;;;5.87;5.27;;;;;;;;;;6185521;28;20301;-74
2023/03/11 01:11:48;;;;;;;5.53;4.90;;;;;;;;;;6186385;28;20482;-76
2023/03/11 01:14:53;;;;;;;7.23;5.70;;;;;;;;;;6184554;28;20305;-74
2023/03/11 01:17:59;;;;;;;6.13;5.53;;;;;;;;;;6186160;28;20305;-73
2023/03/11 01:21:05;;;;;;;7.13;5.80;;;;;;;;;;6184827;28;20296;-74
2023/03/11 01:24:11;;;;;;;9.50;5.60;;;;;;;;;;6189087;28;20297;-75
2023/03/11 01:27:18;;;;;;;5.53;5.03;;;;;;;;;;6191204;28;20304;-74
2023/03/11 01:30:25;;;;;;;8.37;6.03;;;;;;;;;;6189670;28;20301;-74
2023/03/11 01:33:30;;;;;;;8.00;5.73;;;;;;;;;;6190896;28;20613;-74
2023/03/11 01:36:36;;;;;;;7.27;5.73;;;;;;;;;;6221953;28;20468;-75
2023/03/11 01:39:41;;;;;;;7.70;6.10;;;;;;;;;;6190486;28;20617;-74
2023/03/11 01:42:51;;;;;;;9.13;5.73;;;;;;;;;;6189907;28;20287;-73
2023/03/11 01:46:15;;;;;;;8.10;6.10;;;;;;;;;;6192037;28;20298;-76
2023/03/11 01:49:23;;;;;;;6.73;5.47;;;;;;;;;;6188682;28;20313;-75
2023/03/11 01:52:29;;;;;;;10.10;5.60;;;;;;;;;;6221393;28;20292;-74
2023/03/11 01:55:34;;;;;;;7.53;5.53;;;;;;;;;;6187182;28;20629;-74
2023/03/11 01:58:44;;;;;;;6.93;5.70;;;;;;;;;;6187825;28;20300;-75
2023/03/11 02:01:55;;;;;;;6.90;5.90;;;;;;;;;;6189029;28;20316;-74
2023/03/11 02:05:02;;;;;;;6.00;5.40;;;;;;;;;;6220532;28;20379;-74
2023/03/11 02:08:08;;;;;;;7.63;5.60;;;;;;;;;;6220035;28;20301;-73
2023/03/11 02:11:18;;;;;;;6.77;5.50;;;;;;;;;;6188381;28;20292;-75
2023/03/11 02:14:25;;;;;;;8.87;5.70;;;;;;;;;;6220648;28;20476;-74
2023/03/11 02:17:31;;;;;;;6.03;5.40;;;;;;;;;;6190222;28;20309;-75
2023/03/11 02:20:43;;;;;;;6.37;5.70;;;;;;;;;;6189399;28;20306;-74
2023/03/11 02:23:55;;;;;;;7.07;5.83;;;;;;;;;;6188360;28;20300;-74
2023/03/11 02:27:03;;;;;;;7.63;5.33;;;;;;;;;;6220742;28;20297;-75
2023/03/11 02:30:10;;;;;;;7.37;5.50;;;;;;;;;;6220462;28;20317;-74
2023/03/11 02:33:16;;;;;;;6.60;5.63;;;;;;;;;;6220261;28;20296;-74
2023/03/11 02:36:35;;;;;;;7.03;5.57;;;;;;;;;;6221317;28;20587;-72
2023/03/11 02:39:44;;;;;;;9.10;5.93;;;;;;;;;;6187968;28;20296;-74
2023/03/11 02:42:54;;;;;;;6.10;5.30;;;;;;;;;;6188281;28;20292;-74
2023/03/11 02:45:59;;;;;;;7.43;6.03;;;;;;;;;;6188031;28;20309;-74
2023/03/11 02:49:05;;;;;;;10.53;6.20;;;;;;;;;;6187807;28;20316;-74
2023/03/11 02:52:12;;;;;;;7.93;6.00;;;;;;;;;;6188345;28;20297;-74
2023/03/11 02:55:19;;;;;;;7.00;6.00;;;;;;;;;;6219921;28;20327;-74
2023/03/11 02:58:25;;;;;;;8.83;5.83;;;;;;;;;;6188882;28;20297;-75
2023/03/11 03:01:31;;;;;;;8.90;5.77;;;;;;;;;;6187872;28;20277;-73
2023/03/11 03:04:36;;;;;;;13.37;6.10;;;;;;;;;;6187149;28;20296;-74
2023/03/11 03:07:42;;;;;;;10.00;6.00;;;;;;;;;;6221502;28;20309;-73
2023/03/11 03:10:47;;;;;;;7.53;5.90;;;;;;;;;;6186640;28;20300;-73
2023/03/11 03:13:54;;;;;;;7.10;5.60;;;;;;;;;;6219096;28;20316;-74
2023/03/11 03:16:59;;;;;;;7.13;5.50;;;;;;;;;;6219954;28;20337;-74
2023/03/11 03:20:10;;;;;;;8.10;6.00;;;;;;;;;;6187166;28;20296;-74
2023/03/11 03:23:17;;;;;;;10.30;6.70;;;;;;;;;;6222576;28;20292;-75
2023/03/11 03:26:23;;;;;;;6.23;5.63;;;;;;;;;;6188441;28;20413;-73
2023/03/11 03:29:30;;;;;;;5.97;5.37;;;;;;;;;;6218886;28;20296;-73
2023/03/11 03:32:36;;;;;;;3.70;3.40;;;;;;;;;;6219927;28;20289;-74
2023/03/11 03:35:45;;;;;;;3.33;3.13;;;;;;;;;;6186534;28;20479;-74
2023/03/11 03:38:58;;;;;;;3.17;2.97;;;;;;;;;;6186395;28;20308;-74
2023/03/11 03:42:09;;;;;;;3.00;2.80;;;;;;;;;;6219813;28;20294;-74
2023/03/11 03:45:19;;;;;;;2.60;2.57;;;;;;;;;;6185538;28;20305;-74
2023/03/11 03:48:26;;;;;;;2.63;2.43;;;;;;;;;;6185902;28;20449;-74
2023/03/11 03:51:32;;;;;;;3.27;3.07;;;;;;;;;;6186772;28;20302;-74
2023/03/11 03:54:48;;;;;;;3.37;3.27;;;;;;;;;;6186268;28;20566;-75
2023/03/11 03:57:54;;;;;;;2.90;2.80;;;;;;;;;;6218275;28;20301;-75
2023/03/11 04:01:04;;;;;;;3.20;2.90;;;;;;;;;;6186201;28;20246;-74
2023/03/11 04:04:12;;;;;;;5.83;3.50;;;;;;;;;;6183410;28;20292;-75
2023/03/11 04:07:18;;;;;;;5.60;4.00;;;;;;;;;;6187080;28;20584;-75
2023/03/11 04:10:23;;;;;;;5.37;4.83;;;;;;;;;;6218247;28;20585;-74
2023/03/11 04:13:29;;;;;;;5.10;4.70;;;;;;;;;;6185471;28;20314;-73
2023/03/11 04:16:35;;;;;;;4.23;3.93;;;;;;;;;;6185316;28;20416;-74
2023/03/11 04:19:45;;;;;;;4.13;3.53;;;;;;;;;;6185507;28;20289;-74
2023/03/11 04:22:51;;;;;;;3.37;3.00;;;;;;;;;;6217577;28;20527;-74
2023/03/11 04:25:59;;;;;;;3.17;2.60;;;;;;;;;;6218606;28;20297;-75
2023/03/11 04:29:04;;;;;;;2.50;2.40;;;;;;;;;;6186453;28;20301;-74
2023/03/11 04:32:17;;;;;;;2.57;2.47;;;;;;;;;;6186121;28;20286;-75
2023/03/11 04:35:23;;;;;;;2.60;2.50;;;;;;;;;;6217132;28;20305;-75
2023/03/11 04:38:30;;;;;;;2.57;2.47;;;;;;;;;;6217213;28;20301;-74
2023/03/11 04:41:36;;;;;;;2.40;2.30;;;;;;;;;;6217390;28;20437;-73
2023/03/11 04:44:43;;;;;;;2.60;2.50;;;;;;;;;;6216757;28;20495;-74
2023/03/11 04:47:50;;;;;;;5.73;2.50;;;;;;;;;;6186736;28;20324;-74
2023/03/11 04:50:56;;;;;;;3.07;2.47;;;;;;;;;;6219864;28;20305;-74
2023/03/11 04:54:02;;;;;;;2.33;2.23;;;;;;;;;;6217856;28;20298;-74
2023/03/11 04:57:08;;;;;;;2.33;2.23;;;;;;;;;;6216737;28;20301;-74
2023/03/11 05:00:21;;;;;;;2.27;2.17;;;;;;;;;;6219238;28;20296;-75
2023/03/11 05:03:29;;;;;;;3.10;2.80;;;;;;;;;;6187113;28;20298;-74
2023/03/11 05:06:34;;;;;;;4.13;3.33;;;;;;;;;;6217614;28;20286;-75
2023/03/11 05:09:41;;;;;;;3.43;3.13;;;;;;;;;;6216654;28;20301;-74
2023/03/11 05:12:46;;;;;;;3.20;3.10;;;;;;;;;;6184569;28;20296;-74
2023/03/11 05:15:52;;;;;;;2.90;2.80;;;;;;;;;;6185103;28;20298;-74
2023/03/11 05:18:59;;;;;;;3.50;3.30;;;;;;;;;;6184639;28;20305;-74
2023/03/11 05:22:05;;;;;;;3.13;2.93;;;;;;;;;;6185134;28;20296;-74
2023/03/11 05:25:11;;;;;;;3.17;3.00;;;;;;;;;;6216725;28;20310;-73
2023/03/11 05:28:26;;;;;;;3.37;3.10;;;;;;;;;;6185430;28;20298;-74
2023/03/11 05:31:32;;;;;;;3.37;3.07;;;;;;;;;;6216587;28;20438;-73
2023/03/11 05:34:40;;;;;;;3.37;3.10;;;;;;;;;;6216931;28;20295;-75
2023/03/11 05:37:48;;;;;;;3.57;3.23;;;;;;;;;;6216724;28;20538;-74
2023/03/11 05:40:54;;;;;;;3.40;3.10;;;;;;;;;;6185079;28;20321;-74
2023/03/11 05:44:00;;;;;;;2.80;2.70;;;;;;;;;;6217083;28;20321;-74
2023/03/11 05:47:05;;;;;;;3.10;2.90;;;;;;;;;;6217096;28;20288;-74
2023/03/11 05:50:14;;;;;;;3.10;2.90;;;;;;;;;;6216550;28;20399;-74
2023/03/11 05:53:21;;;;;;;3.23;2.33;;;;;;;;;;6217256;28;20298;-74
2023/03/11 05:56:26;;;;;;;2.27;2.07;;;;;;;;;;6217122;28;20314;-74
2023/03/11 05:59:34;;;;;;;2.00;1.90;;;;;;;;;;6216157;28;20313;-73
2023/03/11 06:02:42;;;;;;;2.07;2.07;;;;;;;;;;6216650;28;20320;-74
2023/03/11 06:05:53;;;;;;;2.30;2.20;;;;;;;;;;6217130;28;20582;-74
2023/03/11 06:08:58;;;;;;;2.57;2.40;;;;;;;;;;6218320;28;20301;-74
2023/03/11 06:12:07;;;;;;;2.20;2.10;;;;;;;;;;6190583;28;20487;-74
2023/03/11 06:15:46;;;;;;;1.93;1.93;;;;;;;;;;6220349;28;20301;-75
2023/03/11 06:18:51;;;;;;;1.93;1.90;;;;;;;;;;6188793;28;20306;-75
2023/03/11 06:21:58;;;;;;;2.53;2.50;;;;;;;;;;6189045;28;20301;-74
2023/03/11 06:25:03;;;;;;;2.87;1.97;;;;;;;;;;6220272;28;20300;-73
2023/03/11 06:28:11;;;;;;;1.80;1.70;;;;;;;;;;6188709;28;20307;-74
2023/03/11 06:31:21;;;;;;;2.40;2.10;;;;;;;;;;6221296;28;20347;-74
2023/03/11 06:34:26;;;;;;;2.27;2.27;;;;;;;;;;6189899;28;20421;-76
2023/03/11 06:37:35;;;;;;;2.10;2.00;;;;;;;;;;6219366;28;20279;-73
2023/03/11 06:40:41;;;;;;;2.53;2.40;;;;;;;;;;6224780;28;20527;-74
2023/03/11 06:43:46;;;;;;;2.73;2.53;;;;;;;;;;6189261;28;20295;-74
2023/03/11 06:46:51;;;;;;;3.10;2.70;;;;;;;;;;6188251;28;20314;-75
2023/03/11 06:49:57;;;;;;;2.83;2.73;;;;;;;;;;6188978;28;20313;-73
2023/03/11 06:53:06;;;;;;;2.70;2.50;;;;;;;;;;6220168;28;20302;-75
2023/03/11 06:56:14;;;;;;;2.30;2.20;;;;;;;;;;6189944;28;20311;-75
2023/03/11 06:59:24;;;;;;;2.63;2.40;;;;;;;;;;6219845;28;20302;-75
2023/03/11 07:02:29;;;;;;;2.37;2.20;;;;;;;;;;6187784;28;20298;-75
2023/03/11 07:05:35;;;;;;;2.20;2.10;;;;;;;;;;6220482;28;20311;-73
2023/03/11 07:08:47;;;;;;;2.10;2.00;;;;;;;;;;6220011;28;20305;-74
2023/03/11 07:11:53;;;;;;;2.20;2.20;;;;;;;;;;6193996;28;20291;-75
2023/03/11 07:15:08;;;;;;;2.20;2.10;;;;;;;;;;6195275;28;20291;-74
2023/03/11 07:18:14;;;;;;;3.33;2.20;;;;;;;;;;6225583;28;20300;-75
2023/03/11 07:21:21;;;;;;;1.97;1.83;;;;;;;;;;6186771;28;20326;-74
2023/03/11 07:24:28;;;;;;;2.13;1.90;;;;;;;;;;6188598;28;20300;-75
2023/03/11 07:27:33;;;;;;;2.10;2.00;;;;;;;;;;6187974;28;20344;-75
2023/03/11 07:30:39;;;;;;;2.40;2.20;;;;;;;;;;6188684;28;20304;-74
2023/03/11 07:33:45;;;;;;;2.90;2.70;;;;;;;;;;6188646;28;20301;-75
2023/03/11 07:36:50;;;;;;;2.90;2.73;;;;;;;;;;6188396;28;20297;-75
2023/03/11 07:39:56;;;;;;;3.30;2.80;;;;;;;;;;6189285;28;20332;-74
2023/03/11 07:43:02;;;;;;;2.63;2.43;;;;;;;;;;6188774;28;20310;-75
2023/03/11 07:46:09;;;;;;;4.17;3.67;;;;;;;;;;6171254;28;20594;-74
2023/03/11 07:49:14;;;;;;;4.83;2.60;;;;;;;;;;6194128;28;20329;-74
2023/03/11 07:52:20;;;;;;;2.30;2.10;;;;;;;;;;6164456;28;20296;-74
2023/03/11 07:55:27;;;;;;;1.83;1.80;;;;;;;;;;6162980;28;20300;-75
2023/03/11 07:58:32;;;;;;;2.00;1.90;;;;;;;;;;6163739;28;20297;-74
2023/03/11 08:01:39;;;;;;;1.87;1.77;;;;;;;;;;6164849;28;20281;-73
2023/03/11 08:04:45;;;;;;;1.60;1.60;;;;;;;;;;6163881;28;20596;-75
2023/03/11 08:07:50;;;;;;;2.00;1.83;;;;;;;;;;6163544;28;20308;-74
2023/03/11 08:10:56;;;;;;;2.40;2.30;;;;;;;;;;6174796;28;20327;-74
2023/03/11 08:14:02;;;;;;;4.33;2.50;;;;;;;;;;6187975;28;20579;-75
2023/03/11 08:17:07;;;;;;;2.63;2.53;;;;;;;;;;6189481;28;20301;-75
2023/03/11 08:20:13;;;;;;;2.30;2.20;;;;;;;;;;6220653;28;20583;-74
2023/03/11 08:23:19;;;;;;;1.70;1.70;;;;;;;;;;6185838;28;20296;-74
2023/03/11 08:26:25;;;;;;;1.73;1.63;;;;;;;;;;6188102;28;20294;-74
2023/03/11 08:29:30;;;;;;;2.07;1.97;;;;;;;;;;6186124;28;20316;-75
2023/03/11 08:32:36;;;;;;;2.53;2.20;;;;;;;;;;6187102;28;20628;-74
2023/03/11 08:35:41;;;;;;;2.77;2.07;;;;;;;;;;6187926;28;20321;-75
2023/03/11 08:38:48;;;;;;;1.93;1.87;;;;;;;;;;6187164;28;20291;-74
2023/03/11 08:41:55;;;;;;;2.47;2.37;;;;;;;;;;6187700;28;20569;-75
2023/03/11 08:45:00;;;;;;;2.10;2.00;;;;;;;;;;6187676;28;20294;-74
2023/03/11 08:48:05;;;;;;;1.90;1.90;;;;;;;;;;6187264;28;20310;-76
2023/03/11 08:51:13;;;;;;;2.00;2.00;;;;;;;;;;6187218;28;20335;-76
2023/03/11 08:54:18;;;;;;;2.27;2.10;;;;;;;;;;6186916;28;20298;-75
2023/03/11 08:57:24;;;;;;;2.27;2.07;;;;;;;;;;6187271;28;20296;-76
2023/03/11 09:00:30;;;;;;;3.13;2.10;;;;;;;;;;6187830;28;20591;-76
2023/03/11 09:03:36;;;;;;;2.10;2.00;;;;;;;;;;6187047;28;20293;-76
2023/03/11 09:06:43;;;;;;;6.83;2.00;;;;;;;;;;6187915;28;20298;-76
2023/03/11 09:09:48;;;;;;;2.47;2.30;;;;;;;;;;6187394;28;20289;-75
2023/03/11 09:12:54;;;;;;;28.57;10.20;;;;;;;;;;6186561;28;20290;-77
2023/03/11 09:16:00;;;;;;;24.13;10.73;;;;;;;;;;6187287;28;20293;-78
2023/03/11 09:19:06;;;;;;;4.37;2.80;;;;;;;;;;6186492;28;20293;-74
2023/03/11 09:22:13;;;;;;;2.60;2.50;;;;;;;;;;6186286;28;20473;-74
2023/03/11 09:25:18;;;;;;;3.27;2.00;;;;;;;;;;6186516;28;20382;-75
2023/03/11 09:28:24;;;;;;;2.20;2.10;;;;;;;;;;6186291;28;20312;-74
2023/03/11 09:31:30;;;;;;;2.43;2.33;;;;;;;;;;6186044;28;20305;-74
2023/03/11 09:34:35;;;;;;;2.80;2.60;;;;;;;;;;6185692;28;20285;-74
2023/03/11 09:37:40;;;;;;;3.03;2.83;;;;;;;;;;6186012;28;20298;-74
2023/03/11 09:40:55;;;;;;;2.40;2.40;;;;;;;;;;6217806;28;20298;-76
2023/03/11 09:44:11;;;;;;;2.30;1.90;;;;;;;;;;6188500;28;20542;-75
2023/03/11 09:47:24;;;;;;;2.73;2.53;;;;;;;;;;6222231;28;20294;-74
2023/03/11 09:50:32;;;;;;;4.63;2.50;;;;;;;;;;6191866;28;20484;-74
2023/03/11 09:53:40;;;;;;;2.57;2.47;;;;;;;;;;6190680;28;20306;-75
2023/03/11 09:56:46;;;;;;;2.97;2.47;;;;;;;;;;6192252;28;20468;-74
2023/03/11 09:59:52;;;;;;;2.77;2.57;;;;;;;;;;6192552;28;20488;-75
2023/03/11 10:02:57;;;;;;;2.67;2.57;;;;;;;;;;6190731;28;20404;-76
2023/03/11 10:06:11;;;;;;;2.30;2.20;;;;;;;;;;6191319;28;20381;-76
2023/03/11 10:09:33;;;;;;;3.67;2.60;;;;;;;;;;6190916;28;20306;-75
2023/03/11 10:12:46;;;;;;;2.83;2.73;;;;;;;;;;6190602;28;20430;-75
2023/03/11 10:15:56;;;;;;;1.97;1.90;;;;;;;;;;6191133;28;20304;-76
2023/03/11 10:19:04;;;;;;;3.40;2.50;;;;;;;;;;6190475;28;20303;-77
2023/03/11 10:22:16;;;;;;;2.33;2.27;;;;;;;;;;6190620;28;20298;-78
2023/03/11 10:25:24;;;;;;;2.70;2.40;;;;;;;;;;6222066;28;20295;-77
2023/03/11 10:28:34;;;;;;;2.87;2.40;;;;;;;;;;6189622;28;20489;-72
2023/03/11 10:31:43;;;;;;;2.50;2.40;;;;;;;;;;6189534;28;20291;-74
2023/03/11 10:34:51;;;;;;;2.40;2.30;;;;;;;;;;6190200;28;20292;-75
2023/03/11 10:37:59;;;;;;;3.03;2.90;;;;;;;;;;6189723;28;20300;-74
2023/03/11 10:41:12;;;;;;;2.57;2.50;;;;;;;;;;6190280;28;20561;-75
2023/03/11 10:44:21;;;;;;;2.63;2.53;;;;;;;;;;6188561;28;20304;-75
2023/03/11 10:47:30;;;;;;;4.03;2.27;;;;;;;;;;6189271;28;20298;-74
2023/03/11 10:50:35;;;;;;;2.40;2.30;;;;;;;;;;6189400;28;20294;-74
2023/03/11 10:53:45;;;;;;;2.67;2.37;;;;;;;;;;6189597;28;20289;-76
2023/03/11 10:56:54;;;;;;;2.77;2.63;;;;;;;;;;6189955;28;20304;-74
2023/03/11 11:00:00;;;;;;;2.40;2.20;;;;;;;;;;6189784;28;20325;-74
2023/03/11 11:03:18;;;;;;;4.97;2.10;;;;;;;;;;6189669;28;20300;-74
2023/03/11 11:06:27;;;;;;;2.77;2.57;;;;;;;;;;6189939;28;20298;-76
2023/03/11 11:09:32;;;;;;;2.60;2.50;;;;;;;;;;6189883;28;20301;-75
2023/03/11 11:12:38;;;;;;;4.00;2.20;;;;;;;;;;6188937;28;20299;-74
2023/03/11 11:15:51;;;;;;;2.90;2.70;;;;;;;;;;6189726;28;20304;-74
2023/03/11 11:19:02;;;;;;;3.17;3.00;;;;;;;;;;6189028;28;20316;-76
2023/03/11 11:22:11;;;;;;;3.33;3.13;;;;;;;;;;6188842;28;20400;-76
2023/03/11 11:25:30;;;;;;;2.60;2.60;;;;;;;;;;6189465;28;20488;-76
2023/03/11 11:28:36;;;;;;;3.00;2.63;;;;;;;;;;6187464;28;20297;-76
2023/03/11 11:31:43;;;;;;;2.07;2.07;;;;;;;;;;6188337;28;20294;-76
2023/03/11 11:34:59;;;;;;;2.90;2.80;;;;;;;;;;6189088;28;20554;-74
2023/03/11 11:38:05;;;;;;;2.90;2.70;;;;;;;;;;6193358;28;20294;-75
2023/03/11 11:41:17;;;;;;;2.80;2.60;;;;;;;;;;6188735;28;20317;-75
2023/03/11 11:44:25;;;;;;;4.30;2.60;;;;;;;;;;6188705;28;20430;-75
2023/03/11 11:47:34;;;;;;;3.43;3.27;;;;;;;;;;6188027;28;20295;-76
2023/03/11 11:50:42;;;;;;;2.67;2.47;;;;;;;;;;6189044;28;20302;-76
2023/03/11 11:53:51;;;;;;;2.80;2.60;;;;;;;;;;6188599;28;20305;-77
2023/03/11 11:56:56;;;;;;;2.40;2.40;;;;;;;;;;6188484;28;20589;-77
2023/03/11 12:00:08;;;;;;;2.63;2.57;;;;;;;;;;6187375;28;20298;-75
2023/03/11 12:03:30;;;;;;;2.70;2.60;;;;;;;;;;6187701;28;20305;-75
2023/03/11 12:06:42;;;;;;;2.73;2.63;;;;;;;;;;6187134;28;20394;-75
2023/03/11 12:09:52;;;;;;;4.10;2.40;;;;;;;;;;6188305;28;20304;-74
2023/03/11 12:13:36;;;;;;;4.00;3.10;;;;;;;;;;6187305;28;20585;-75
2023/03/11 12:16:43;;;;;;;2.40;2.30;;;;;;;;;;6170208;28;20279;-75
2023/03/11 12:19:51;;;;;;;3.07;2.90;;;;;;;;;;6187934;28;20374;-75
2023/03/11 12:23:16;;;;;;;2.77;2.73;;;;;;;;;;6187123;28;20310;-74
2023/03/11 12:26:23;;;;;;;3.53;3.10;;;;;;;;;;6187232;28;20517;-75
2023/03/11 12:29:31;;;;;;;3.17;2.97;;;;;;;;;;6187593;28;20310;-75
2023/03/11 12:32:40;;;;;;;3.43;2.70;;;;;;;;;;6187036;28;20307;-75
2023/03/11 12:35:50;;;;;;;2.00;2.00;;;;;;;;;;6187526;28;20499;-76
2023/03/11 12:38:57;;;;;;;1.90;1.90;;;;;;;;;;6186890;28;20403;-76
2023/03/11 12:42:19;;;;;;;2.50;2.37;;;;;;;;;;6186704;28;20300;-74
2023/03/11 12:45:48;;;;;;;2.13;2.03;;;;;;;;;;6186198;28;20308;-75
2023/03/11 12:49:10;;;;;;;3.53;3.17;;;;;;;;;;6186380;28;20301;-75
2023/03/11 12:52:27;;;;;;;4.03;3.37;;;;;;;;;;6186615;28;20324;-74
2023/03/11 12:55:35;;;;;;;3.67;3.37;;;;;;;;;;6185566;28;20359;-74
2023/03/11 12:59:07;;;;;;;3.47;3.27;;;;;;;;;;6186587;28;20300;-75
2023/03/11 13:02:28;;;;;;;5.97;3.77;;;;;;;;;;6186350;28;20307;-75
2023/03/11 13:05:45;;;;;;;6.50;4.73;;;;;;;;;;6186285;28;20309;-74
2023/03/11 13:08:53;;;;;;;3.03;2.77;;;;;;;;;;6185938;28;20310;-74
2023/03/11 13:12:00;;;;;;;3.20;2.90;;;;;;;;;;6185668;28;20301;-75
2023/03/11 13:15:30;;;;;;;4.03;3.80;;;;;;;;;;6187777;28;20377;-74
2023/03/11 13:18:35;;;;;;;3.07;2.87;;;;;;;;;;6188724;28;20315;-75
2023/03/11 13:21:41;;;;;;;5.13;3.30;;;;;;;;;;6190990;28;20296;-75
2023/03/11 13:24:52;;;;;;;2.80;2.70;;;;;;;;;;6191755;28;20300;-75
2023/03/11 13:28:07;;;;;;;3.10;2.90;;;;;;;;;;6190399;28;20382;-75
2023/03/11 13:31:24;;;;;;;2.90;2.80;;;;;;;;;;6191189;28;20304;-74
2023/03/11 13:34:35;;;;;;;2.33;2.23;;;;;;;;;;6190952;28;20588;-75
2023/03/11 13:37:48;;;;;;;3.27;3.00;;;;;;;;;;6189563;28;20301;-75
2023/03/11 13:40:54;;;;;;;4.03;3.73;;;;;;;;;;6190973;28;20529;-75
2023/03/11 13:44:10;;;;;;;6.03;4.80;;;;;;;;;;6191316;28;20297;-75
2023/03/11 13:47:16;;;;;;;2.90;2.80;;;;;;;;;;6194035;28;20297;-73
2023/03/11 13:50:25;;;;;;;3.10;2.87;;;;;;;;;;6196930;28;20285;-74
2023/03/11 13:53:34;;;;;;;4.63;3.87;;;;;;;;;;6194982;28;20308;-75
2023/03/11 13:56:45;;;;;;;2.70;2.70;;;;;;;;;;6190839;28;20290;-76
2023/03/11 13:59:54;;;;;;;2.37;2.33;;;;;;;;;;6191162;28;20306;-76
2023/03/11 14:03:02;;;;;;;3.23;3.13;;;;;;;;;;6190129;28;20302;-75
2023/03/11 14:06:09;;;;;;;2.67;2.57;;;;;;;;;;6190467;28;20303;-75
2023/03/11 14:09:19;;;;;;;2.40;2.30;;;;;;;;;;6190118;28;20305;-75
2023/03/11 14:12:24;;;;;;;3.23;2.10;;;;;;;;;;6204695;28;20289;-75
2023/03/11 14:15:43;;;;;;;1.90;1.80;;;;;;;;;;6190255;28;20297;-75
2023/03/11 14:19:03;;;;;;;2.17;2.17;;;;;;;;;;6190765;28;20316;-73
2023/03/11 14:22:11;;;;;;;3.67;2.97;;;;;;;;;;6190244;28;20293;-75
2023/03/11 14:25:20;;;;;;;2.40;2.30;;;;;;;;;;6189979;28;20300;-75
2023/03/11 14:28:25;;;;;;;2.67;2.53;;;;;;;;;;6189887;28;20305;-74
2023/03/11 14:31:34;;;;;;;2.33;2.33;;;;;;;;;;6189011;28;20269;-74
2023/03/11 14:34:41;;;;;;;2.50;2.30;;;;;;;;;;6189346;28;20314;-75
2023/03/11 14:37:46;;;;;;;3.27;3.17;;;;;;;;;;6189592;28;20373;-76
2023/03/11 14:40:54;;;;;;;3.03;2.93;;;;;;;;;;6190761;28;20289;-76
2023/03/11 14:44:00;;;;;;;2.40;2.33;;;;;;;;;;6190136;28;20554;-75
2023/03/11 14:47:11;;;;;;;4.63;3.27;;;;;;;;;;6189773;28;20351;-75
2023/03/11 14:50:18;;;;;;;2.53;2.33;;;;;;;;;;6190537;28;20485;-76
2023/03/11 14:53:25;;;;;;;4.33;4.03;;;;;;;;;;6194575;28;20297;-75
2023/03/11 14:56:31;;;;;;;3.20;3.00;;;;;;;;;;6190427;28;20486;-74
2023/03/11 14:59:37;;;;;;;8.17;3.63;;;;;;;;;;6189173;28;20313;-75
2023/03/11 15:02:56;;;;;;;2.20;2.10;;;;;;;;;;6188965;28;20299;-76
2023/03/11 15:06:06;;;;;;;3.70;2.20;;;;;;;;;;6223213;28;20299;-75
2023/03/11 15:09:15;;;;;;;1.70;1.60;;;;;;;;;;6188998;28;20301;-75
2023/03/11 15:12:35;;;;;;;1.60;1.50;;;;;;;;;;6189035;28;20328;-75
2023/03/11 15:15:40;;;;;;;1.70;1.70;;;;;;;;;;6189071;28;20461;-74
2023/03/11 15:18:47;;;;;;;1.40;1.40;;;;;;;;;;6188550;28;20580;-75
2023/03/11 15:21:54;;;;;;;1.30;1.30;;;;;;;;;;6190301;28;20568;-75
2023/03/11 15:25:01;;;;;;;1.70;1.30;;;;;;;;;;6190627;28;20306;-75
2023/03/11 15:28:23;;;;;;;1.30;1.30;;;;;;;;;;6187856;28;20434;-75
2023/03/11 15:31:34;;;;;;;1.30;1.30;;;;;;;;;;6189117;28;20304;-75
2023/03/11 15:34:41;;;;;;;1.60;1.53;;;;;;;;;;6187791;28;20291;-75
2023/03/11 15:37:47;;;;;;;2.60;1.67;;;;;;;;;;6188527;28;20410;-74
2023/03/11 15:40:55;;;;;;;1.53;1.53;;;;;;;;;;6188386;28;20499;-74
2023/03/11 15:44:02;;;;;;;4.83;3.20;;;;;;;;;;6188914;28;20297;-76
2023/03/11 15:47:13;;;;;;;2.80;2.70;;;;;;;;;;6188736;28;20444;-75
2023/03/11 15:50:26;;;;;;;1.60;1.60;;;;;;;;;;6188800;28;20299;-75
2023/03/11 15:53:50;;;;;;;1.50;1.50;;;;;;;;;;6188755;28;20568;-75
2023/03/11 15:56:56;;;;;;;1.20;1.20;;;;;;;;;;6188395;28;20294;-75
2023/03/11 16:00:02;;;;;;;1.30;1.30;;;;;;;;;;6219559;28;20299;-75
2023/03/11 16:03:12;;;;;;;1.20;1.20;;;;;;;;;;6187727;28;20492;-75
2023/03/11 16:06:21;;;;;;;1.40;1.40;;;;;;;;;;6188780;28;20293;-75
2023/03/11 16:09:26;;;;;;;1.40;1.40;;;;;;;;;;6188009;28;20305;-75
2023/03/11 16:12:31;;;;;;;1.30;1.27;;;;;;;;;;6164199;28;20300;-76
2023/03/11 16:15:37;;;;;;;1.37;1.30;;;;;;;;;;6194617;28;20238;-75
2023/03/11 16:18:43;;;;;;;1.30;1.30;;;;;;;;;;6163640;28;20293;-74
2023/03/11 16:21:50;;;;;;;2.23;1.70;;;;;;;;;;6163679;28;20582;-75
2023/03/11 16:24:55;;;;;;;1.37;1.37;;;;;;;;;;6163926;28;20297;-75
2023/03/11 16:28:00;;;;;;;1.77;1.67;;;;;;;;;;6177502;28;20491;-75
2023/03/11 16:31:08;;;;;;;1.30;1.30;;;;;;;;;;6190915;28;20302;-74
2023/03/11 16:34:13;;;;;;;2.73;1.30;;;;;;;;;;6188828;28;20306;-76
2023/03/11 16:37:20;;;;;;;1.70;1.60;;;;;;;;;;6187544;28;20344;-74
2023/03/11 16:40:27;;;;;;;2.73;1.30;;;;;;;;;;6187999;28;20301;-75
2023/03/11 16:43:33;;;;;;;1.50;1.40;;;;;;;;;;6186410;28;20297;-76
2023/03/11 16:46:38;;;;;;;1.67;1.67;;;;;;;;;;6186586;28;20273;-76
2023/03/11 16:49:43;;;;;;;1.80;1.70;;;;;;;;;;6189303;28;20273;-75
2023/03/11 16:52:50;;;;;;;1.60;1.60;;;;;;;;;;6185522;28;20305;-74
2023/03/11 16:55:55;;;;;;;1.47;1.43;;;;;;;;;;6218582;28;20296;-74
2023/03/11 16:59:01;;;;;;;1.40;1.40;;;;;;;;;;6187145;28;20296;-75
2023/03/11 17:02:06;;;;;;;1.63;1.63;;;;;;;;;;6187223;28;20330;-75
2023/03/11 17:05:12;;;;;;;1.43;1.20;;;;;;;;;;6185808;28;20307;-75
2023/03/11 17:08:19;;;;;;;1.40;1.30;;;;;;;;;;6185756;28;20309;-74
2023/03/11 17:11:27;;;;;;;1.60;1.60;;;;;;;;;;6186874;28;20303;-74
2023/03/11 17:14:32;;;;;;;1.73;1.40;;;;;;;;;;6185909;28;20296;-77
2023/03/11 17:17:37;;;;;;;1.50;1.50;;;;;;;;;;6185790;28;20303;-74
2023/03/11 17:20:44;;;;;;;3.33;1.70;;;;;;;;;;6187225;28;20296;-74
2023/03/11 17:23:53;;;;;;;1.60;1.60;;;;;;;;;;6186476;28;20314;-75
2023/03/11 17:26:58;;;;;;;2.70;1.63;;;;;;;;;;6187799;28;20300;-76
2023/03/11 17:30:05;;;;;;;1.93;1.80;;;;;;;;;;6186103;28;20297;-76
2023/03/11 17:33:11;;;;;;;1.77;1.70;;;;;;;;;;6186329;28;20303;-73
2023/03/11 17:36:18;;;;;;;5.60;2.50;;;;;;;;;;6187096;28;20296;-73
2023/03/11 17:39:24;;;;;;;2.50;2.30;;;;;;;;;;6186933;28;20307;-75
2023/03/11 17:42:29;;;;;;;1.50;1.50;;;;;;;;;;6187454;28;20313;-75
2023/03/11 17:45:34;;;;;;;1.93;1.90;;;;;;;;;;6208045;28;20619;-75
2023/03/11 17:48:40;;;;;;;2.30;1.60;;;;;;;;;;6186369;28;20299;-75
2023/03/11 17:51:45;;;;;;;1.77;1.67;;;;;;;;;;6184463;28;20568;-77
2023/03/11 17:54:52;;;;;;;1.40;1.40;;;;;;;;;;6185123;28;20291;-76
2023/03/11 17:57:57;;;;;;;1.70;1.70;;;;;;;;;;6186691;28;20557;-76
2023/03/11 18:01:04;;;;;;;3.07;1.77;;;;;;;;;;6186729;28;20296;-74
2023/03/11 18:04:10;;;;;;;1.83;1.70;;;;;;;;;;6185297;28;20294;-76
2023/03/11 18:07:16;;;;;;;1.67;1.67;;;;;;;;;;6182806;28;20323;-75
2023/03/11 18:10:23;;;;;;;1.73;1.57;;;;;;;;;;6195275;28;20291;-76
2023/03/11 18:13:28;;;;;;;1.90;1.90;;;;;;;;;;6189720;28;20304;-75
2023/03/11 18:16:33;;;;;;;2.03;1.93;;;;;;;;;;6180673;28;20298;-75
2023/03/11 18:19:38;;;;;;;2.97;2.10;;;;;;;;;;6189776;28;20272;-75
2023/03/11 18:22:43;;;;;;;3.33;2.20;;;;;;;;;;6189691;28;20299;-75
2023/03/11 18:25:53;;;;;;;2.10;2.10;;;;;;;;;;6222299;28;20452;-76
2023/03/11 18:28:59;;;;;;;2.33;2.13;;;;;;;;;;6190133;28;20302;-76
2023/03/11 18:32:05;;;;;;;3.40;2.27;;;;;;;;;;6189928;28;20302;-74
2023/03/11 18:35:12;;;;;;;2.17;2.00;;;;;;;;;;6190052;28;20290;-77
2023/03/11 18:38:18;;;;;;;2.20;2.10;;;;;;;;;;6190562;28;20294;-76
2023/03/11 18:41:25;;;;;;;2.50;2.30;;;;;;;;;;6190209;28;20296;-74
2023/03/11 18:44:30;;;;;;;2.37;2.37;;;;;;;;;;6189857;28;20291;-75
2023/03/11 18:47:35;;;;;;;2.20;2.20;;;;;;;;;;6189349;28;20302;-74